Airfield :
LOGIN :

Register | Disclaimer

   EN    FR    IT 

 










Legend :    VFR   Marginal VFR   IFR   Intensive IFR   Very Intensive IFR
Visi :
Ceiling :
>= 8 km
>= 3000ft
5 to 8 km
1000 to 3000 ft
1500m to 5 km
500 to 1000 ft
800 to 1500m
200 to 500 ft
< 800m
< 200 ft
Symbols :   Thunderstorms  Fog  Heavy snow  Heavy precipitations  Wind > 20 kt
SIGMETs :     Misc.  Thunderstorms  Icing  Turbulence  Mountain Waves  Volcanic Ashes







- Airport Elevation : 184 ft
- IATA code : BRU


EBBR - Bruxelles

CURRENT METAR :
  • 301420Z 20008KT 170V230 CAVOK 21/08 Q1022 NOSIG

EXPIRED METARs :
  • 301350Z 20006KT 160V240 CAVOK 21/09 Q1022 NOSIG
  • 301320Z 18010KT 150V210 CAVOK 21/09 Q1023 NOSIG
  • 301250Z 18011KT CAVOK 21/08 Q1023 NOSIG
  • 301220Z 18007KT 150V240 CAVOK 21/10 Q1023 NOSIG
  • 301150Z 21006KT 160V270 CAVOK 21/08 Q1024 NOSIG
  • 301120Z 24009KT CAVOK 20/09 Q1024 NOSIG

TAF TAF EBBR
Valid from the 30 at 12:00 until the 31 at 18:00 UTC


301101Z 3012/3118 18007KT CAVOK
No reported NOTAMs for that airfield.



MET'MAP, your aeronautical weather chart ! - Copyright ORBIFLY December 2007 - Disclaimer

ORBIFLY MET'MAP TEAM :

Programming & Development : Alexandra Zaïnal
Concept & Development : Baudouin d'Aumeries
Co-Development & Prog : Marc-Olivier Méhu
Technical & hardware support : Manuel Goepfert

Contact : metmap@orbifly.com




SOURCES & CREDITS :

   NOAA